createdAt,value
2018-11-20T00:00:49.258Z,5.78
2018-11-20T00:02:22.082Z,5.79
2018-11-20T00:03:46.069Z,5.79
2018-11-20T00:05:12.845Z,5.79
2018-11-20T00:06:51.802Z,5.79
2018-11-20T00:08:12.397Z,5.81
2018-11-20T00:09:35.306Z,5.81
2018-11-20T00:11:06.357Z,5.81
2018-11-20T00:12:21.595Z,5.78
2018-11-20T00:13:41.037Z,5.78
2018-11-20T00:15:08.258Z,5.78
2018-11-20T00:16:31.331Z,5.79
2018-11-20T00:17:45.704Z,5.82
2018-11-20T00:19:21.758Z,5.83
2018-11-20T00:20:38.428Z,5.83
2018-11-20T00:22:05.468Z,5.85
2018-11-20T00:23:32.277Z,5.85
2018-11-20T00:24:55.211Z,5.87
2018-11-20T00:26:12.242Z,5.87
2018-11-20T00:27:35.256Z,5.86
2018-11-20T00:28:57.875Z,5.87
2018-11-20T00:30:22.694Z,5.88
2018-11-20T00:31:45.403Z,5.88
2018-11-20T00:33:27.832Z,5.89
2018-11-20T00:35:03.977Z,5.89
2018-11-20T00:36:27.975Z,5.88
2018-11-20T00:37:50.472Z,5.87
2018-11-20T00:39:05.474Z,5.87
2018-11-20T00:40:40.948Z,5.87
2018-11-20T00:42:17.137Z,5.88
2018-11-20T00:43:39.704Z,5.88
2018-11-20T00:45:12.595Z,5.88
2018-11-20T00:46:45.531Z,5.87
2018-11-20T00:48:08.624Z,5.86
2018-11-20T00:49:31.667Z,5.86
2018-11-20T00:50:54.445Z,5.85
2018-11-20T00:52:18.951Z,5.84
2018-11-20T00:53:41.808Z,5.83
2018-11-20T00:55:05.789Z,5.83
2018-11-20T00:56:53.107Z,5.83
2018-11-20T00:58:20.223Z,5.83
2018-11-20T00:59:44.453Z,5.82
2018-11-20T01:00:57.461Z,5.81
2018-11-20T01:02:39.903Z,5.78
2018-11-20T01:04:07.220Z,5.77
2018-11-20T01:05:30.096Z,5.76
2018-11-20T01:06:52.084Z,5.76
2018-11-20T01:08:21.946Z,5.74
2018-11-20T01:09:39.344Z,5.74
2018-11-20T01:11:04.808Z,5.74
2018-11-20T01:12:26.576Z,5.75
2018-11-20T01:13:49.287Z,5.75
2018-11-20T01:15:12.425Z,5.74
2018-11-20T01:16:35.054Z,5.75
2018-11-20T01:18:01.599Z,5.74
2018-11-20T01:19:37.813Z,5.74
2018-11-20T01:21:00.197Z,5.73
2018-11-20T01:22:17.704Z,5.73
2018-11-20T01:23:40.425Z,5.73
2018-11-20T01:25:03.145Z,5.71
2018-11-20T01:26:27.120Z,5.71
2018-11-20T01:27:49.880Z,5.71
2018-11-20T01:29:04.419Z,5.71
2018-11-20T01:30:40.629Z,5.70
2018-11-20T01:32:19.648Z,5.69
2018-11-20T01:33:42.685Z,5.68
2018-11-20T01:35:05.527Z,5.68
2018-11-20T01:36:17.346Z,5.68
2018-11-20T01:37:40.189Z,5.68
2018-11-20T01:38:57.017Z,5.66
2018-11-20T01:40:30.141Z,5.63
2018-11-20T01:41:55.331Z,5.64
2018-11-20T01:43:18.624Z,5.64
2018-11-20T01:44:41.384Z,5.64
2018-11-20T01:46:15.548Z,5.64
2018-11-20T01:47:38.400Z,5.63
2018-11-20T01:49:20.609Z,5.63
2018-11-20T01:50:39.301Z,5.61
2018-11-20T01:52:09.198Z,5.58
2018-11-20T01:53:28.742Z,5.54
2018-11-20T01:54:51.468Z,5.55
2018-11-20T01:56:09.574Z,5.56
2018-11-20T01:57:33.730Z,5.57
2018-11-20T01:58:57.753Z,5.58
2018-11-20T02:00:20.693Z,5.58
2018-11-20T02:01:57.131Z,5.59
2018-11-20T02:03:20.256Z,5.58
2018-11-20T02:05:02.328Z,5.58
2018-11-20T02:06:23.681Z,5.58
2018-11-20T02:08:06.067Z,5.58
2018-11-20T02:09:39.294Z,5.59
2018-11-20T02:11:15.480Z,5.57
2018-11-20T02:12:38.250Z,5.56
2018-11-20T02:14:18.754Z,5.53
2018-11-20T02:15:38.067Z,5.52
2018-11-20T02:17:03.321Z,5.51
2018-11-20T02:18:32.459Z,5.53
2018-11-20T02:19:56.511Z,5.54
2018-11-20T02:21:15.768Z,5.54
2018-11-20T02:22:39.077Z,5.55
2018-11-20T02:24:18.336Z,5.54
2018-11-20T02:25:33.627Z,5.54
2018-11-20T02:26:56.255Z,5.53
2018-11-20T02:28:35.485Z,5.54
2018-11-20T02:29:57.168Z,5.53
2018-11-20T02:31:19.641Z,5.55
2018-11-20T02:32:32.938Z,5.55
2018-11-20T02:34:05.179Z,5.55
2018-11-20T02:35:27.865Z,5.53
2018-11-20T02:36:45.106Z,5.52
2018-11-20T02:38:19.298Z,5.49
2018-11-20T02:39:41.856Z,5.52
2018-11-20T02:41:09.259Z,5.50
2018-11-20T02:42:39.275Z,5.51
2018-11-20T02:44:15.193Z,5.53
2018-11-20T02:45:48.065Z,5.54
2018-11-20T02:47:11.053Z,5.52
2018-11-20T02:48:40.791Z,5.51
2018-11-20T02:50:04.768Z,5.52
2018-11-20T02:51:31.652Z,5.52
2018-11-20T02:53:01.284Z,5.53
2018-11-20T02:54:33.628Z,5.52
2018-11-20T02:56:00.847Z,5.50
2018-11-20T02:57:17.836Z,5.47
2018-11-20T02:58:31.337Z,5.45
2018-11-20T02:59:47.736Z,5.45
2018-11-20T03:01:03.133Z,5.42
2018-11-20T03:02:42.627Z,5.41
2018-11-20T03:04:04.736Z,5.40
2018-11-20T03:05:18.647Z,5.40
2018-11-20T03:06:51.532Z,5.39
2018-11-20T03:08:07.656Z,5.39
2018-11-20T03:09:31.567Z,5.37
2018-11-20T03:11:13.900Z,5.36
2018-11-20T03:12:29.636Z,5.36
2018-11-20T03:13:53.106Z,5.36
2018-11-20T03:15:22.924Z,5.36
2018-11-20T03:16:45.455Z,5.36
2018-11-20T03:18:09.286Z,5.37
2018-11-20T03:19:35.784Z,5.36
2018-11-20T03:20:58.669Z,5.34
2018-11-20T03:22:21.712Z,5.30
2018-11-20T03:23:51.519Z,5.29
2018-11-20T03:25:24.717Z,5.25
2018-11-20T03:26:48.811Z,5.24
2018-11-20T03:28:18.485Z,5.23
2018-11-20T03:30:33.135Z,5.23
2018-11-20T03:31:55.622Z,5.25
2018-11-20T03:33:26.543Z,5.27
2018-11-20T03:34:46.976Z,5.28
2018-11-20T03:36:09.709Z,5.29
2018-11-20T03:37:25.178Z,5.31
2018-11-20T03:38:44.772Z,5.34
2018-11-20T03:40:07.606Z,5.34
2018-11-20T03:41:22.884Z,5.36
2018-11-20T03:42:46.474Z,5.37
2018-11-20T03:44:15.800Z,5.39
2018-11-20T03:45:49.079Z,5.38
2018-11-20T03:47:11.731Z,5.38
2018-11-20T03:48:35.377Z,5.39
2018-11-20T03:49:57.784Z,5.40
2018-11-20T03:51:20.515Z,5.41
2018-11-20T03:52:42.864Z,5.43
2018-11-20T03:54:07.199Z,5.46
2018-11-20T03:55:29.958Z,5.48
2018-11-20T03:56:53.917Z,5.49
2018-11-20T03:58:11.752Z,5.50
2018-11-20T03:59:51.003Z,5.51
2018-11-20T04:01:22.001Z,5.52
2018-11-20T04:02:42.587Z,5.54
2018-11-20T04:03:58.957Z,5.54
2018-11-20T04:05:17.868Z,5.53
2018-11-20T04:06:40.446Z,5.54
2018-11-20T04:08:13.213Z,5.56
2018-11-20T04:09:34.855Z,5.57
2018-11-20T04:10:49.808Z,5.57
2018-11-20T04:12:16.392Z,5.58
2018-11-20T04:13:35.772Z,5.60
2018-11-20T04:14:58.741Z,5.63
2018-11-20T04:16:17.840Z,5.65
2018-11-20T04:17:54.063Z,5.67
2018-11-20T04:19:08.500Z,5.68
2018-11-20T04:20:32.543Z,5.70
2018-11-20T04:21:55.608Z,5.70
2018-11-20T04:23:28.603Z,5.70
2018-11-20T04:24:51.729Z,5.71
2018-11-20T04:26:15.658Z,5.72
2018-11-20T04:27:51.962Z,5.74
2018-11-20T04:29:18.854Z,5.74
2018-11-20T04:31:11.951Z,5.75
2018-11-20T04:32:34.904Z,5.75
2018-11-20T04:34:05.877Z,5.77
2018-11-20T04:35:27.502Z,5.75
2018-11-20T04:36:47.320Z,5.76
2018-11-20T04:37:59.464Z,5.78
2018-11-20T04:39:17.140Z,5.82
2018-11-20T04:40:40.046Z,5.83
2018-11-20T04:41:59.226Z,5.84
2018-11-20T04:43:26.638Z,5.85
2018-11-20T04:44:53.748Z,5.85
2018-11-20T04:46:27.451Z,5.85
2018-11-20T04:47:54.072Z,5.86
2018-11-20T04:49:08.984Z,5.86
2018-11-20T04:50:34.000Z,5.85
2018-11-20T04:51:56.458Z,5.87
2018-11-20T04:53:23.028Z,5.88
2018-11-20T04:54:55.770Z,5.90
2018-11-20T04:56:31.416Z,5.92
2018-11-20T04:57:57.859Z,5.94
2018-11-20T04:59:16.708Z,5.95
2018-11-20T05:00:40.690Z,5.98
2018-11-20T05:02:03.456Z,5.98
2018-11-20T05:03:30.251Z,5.99
2018-11-20T05:04:47.016Z,5.99
2018-11-20T05:06:16.799Z,5.99
2018-11-20T05:07:43.837Z,6.01
2018-11-20T05:09:06.349Z,6.02
2018-11-20T05:10:45.350Z,6.03
2018-11-20T05:12:15.379Z,6.04
2018-11-20T05:13:54.544Z,6.03
2018-11-20T05:15:17.954Z,6.05
2018-11-20T05:17:00.147Z,6.06
2018-11-20T05:18:22.811Z,6.07
2018-11-20T05:19:52.930Z,6.05
2018-11-20T05:21:15.553Z,6.06
2018-11-20T05:22:39.218Z,6.07
2018-11-20T05:23:59.123Z,6.07
2018-11-20T05:25:25.801Z,6.06
2018-11-20T05:27:01.969Z,6.05
2018-11-20T05:28:35.064Z,6.05
2018-11-20T05:30:17.290Z,6.05
2018-11-20T05:31:44.211Z,6.05
2018-11-20T05:33:08.168Z,6.07
2018-11-20T05:34:32.177Z,6.09
2018-11-20T05:35:58.543Z,6.10
2018-11-20T05:37:12.687Z,6.11
2018-11-20T05:38:45.826Z,6.12
2018-11-20T05:40:08.864Z,6.14
2018-11-20T05:41:31.688Z,6.14
2018-11-20T05:43:04.873Z,6.15
2018-11-20T05:44:38.161Z,6.18
2018-11-20T05:46:00.906Z,6.18
2018-11-20T05:47:23.720Z,6.20
2018-11-20T05:48:56.601Z,6.19
2018-11-20T05:50:35.923Z,6.19
2018-11-20T05:51:58.722Z,6.21
2018-11-20T05:53:10.891Z,6.20
2018-11-20T05:54:37.436Z,6.21
2018-11-20T05:56:04.698Z,6.21
2018-11-20T05:57:25.753Z,6.22
2018-11-20T05:58:45.422Z,6.22
2018-11-20T06:00:21.341Z,6.22
2018-11-20T06:01:44.441Z,6.24
2018-11-20T06:03:20.438Z,6.23
2018-11-20T06:04:44.443Z,6.23
2018-11-20T06:05:57.126Z,6.22
2018-11-20T06:07:30.112Z,6.23
2018-11-20T06:08:56.835Z,6.24
2018-11-20T06:10:36.023Z,6.24
2018-11-20T06:11:58.880Z,6.25
2018-11-20T06:13:28.939Z,6.21
2018-11-20T06:15:01.701Z,6.20
2018-11-20T06:16:35.836Z,6.18
2018-11-20T06:17:58.669Z,6.18
2018-11-20T06:19:21.396Z,6.18
2018-11-20T06:20:57.508Z,6.18
2018-11-20T06:22:30.543Z,6.18
2018-11-20T06:23:58.586Z,6.15
2018-11-20T06:25:24.049Z,6.13
2018-11-20T06:26:56.973Z,6.14
2018-11-20T06:28:17.722Z,6.14
2018-11-20T06:29:53.711Z,6.13
2018-11-20T06:31:33.067Z,6.15
2018-11-20T06:32:49.797Z,6.15
2018-11-20T06:34:14.286Z,6.15
2018-11-20T06:35:56.551Z,6.14
2018-11-20T06:37:19.169Z,6.14
2018-11-20T06:38:43.994Z,6.13
2018-11-20T06:40:09.664Z,6.13
2018-11-20T06:41:32.541Z,6.13
2018-11-20T06:42:58.505Z,6.12
2018-11-20T06:44:20.799Z,6.12
2018-11-20T06:45:43.246Z,6.11
2018-11-20T06:47:05.981Z,6.11
2018-11-20T06:48:31.801Z,6.13
2018-11-20T06:50:01.591Z,6.13
2018-11-20T06:51:37.831Z,6.15
2018-11-20T06:53:13.881Z,6.15
2018-11-20T06:54:39.110Z,6.16
2018-11-20T06:56:06.156Z,6.18
2018-11-20T06:57:30.141Z,6.17
2018-11-20T06:59:12.271Z,6.18
2018-11-20T07:00:42.521Z,6.17
2018-11-20T07:02:10.699Z,6.14
2018-11-20T07:03:33.467Z,6.13
2018-11-20T07:04:56.734Z,6.13
2018-11-20T07:06:19.356Z,6.14
2018-11-20T07:08:01.794Z,6.12
2018-11-20T07:09:26.385Z,6.12
2018-11-20T07:10:56.156Z,6.12
2018-11-20T07:12:26.127Z,6.13
2018-11-20T07:13:50.128Z,6.14
2018-11-20T07:15:05.904Z,6.15
2018-11-20T07:17:01.596Z,6.15
2018-11-20T07:18:26.885Z,6.17
2018-11-20T07:19:46.592Z,6.20
2018-11-20T07:21:25.932Z,6.23
2018-11-20T07:22:42.339Z,6.23
2018-11-20T07:24:05.083Z,6.25
2018-11-20T07:25:27.845Z,6.27
2018-11-20T07:26:50.638Z,6.28
2018-11-20T07:28:20.580Z,6.29
2018-11-20T07:29:38.210Z,6.32
2018-11-20T07:30:59.352Z,6.32
2018-11-20T07:32:32.964Z,6.32
2018-11-20T07:33:47.872Z,6.34
2018-11-20T07:35:11.233Z,6.36
2018-11-20T07:36:34.608Z,6.37
2018-11-20T07:38:18.637Z,6.38
2018-11-20T07:39:35.140Z,6.38
2018-11-20T07:40:56.761Z,6.39
2018-11-20T07:42:19.382Z,6.39
2018-11-20T07:43:57.405Z,6.39
2018-11-20T07:45:13.415Z,6.42
2018-11-20T07:46:40.161Z,6.41
2018-11-20T07:48:02.473Z,6.43
2018-11-20T07:49:35.556Z,6.43
2018-11-20T07:51:03.174Z,6.44
2018-11-20T07:52:27.483Z,6.44
2018-11-20T07:53:59.094Z,6.44
2018-11-20T07:55:38.302Z,6.45
2018-11-20T07:57:02.622Z,6.44
2018-11-20T08:00:45.893Z,6.42
2018-11-20T08:02:22.439Z,6.43
2018-11-20T08:03:45.663Z,6.42
2018-11-20T08:05:15.549Z,6.42
2018-11-20T08:06:45.593Z,6.43
2018-11-20T08:07:58.563Z,6.43
2018-11-20T08:09:21.219Z,6.43
2018-11-20T08:10:33.234Z,6.44
2018-11-20T08:12:00.542Z,6.44
2018-11-20T08:13:24.513Z,6.45
2018-11-20T08:14:36.658Z,6.47
2018-11-20T08:15:59.758Z,6.47
2018-11-20T08:17:29.766Z,6.47
2018-11-20T08:18:56.600Z,6.48
2018-11-20T08:20:26.592Z,6.48
2018-11-20T08:21:49.248Z,6.49
2018-11-20T08:23:16.247Z,6.51
2018-11-20T08:24:46.270Z,6.52
2018-11-20T08:26:22.426Z,6.52
2018-11-20T08:27:55.219Z,6.52
2018-11-20T08:29:37.584Z,6.52
2018-11-20T08:31:07.298Z,6.53
2018-11-20T08:32:46.286Z,6.54
2018-11-20T08:34:28.144Z,6.54
2018-11-20T08:35:50.671Z,6.56
2018-11-20T08:37:08.600Z,6.58
2018-11-20T08:38:27.595Z,6.57
2018-11-20T08:40:01.099Z,6.57
2018-11-20T08:41:37.347Z,6.59
2018-11-20T08:42:54.488Z,6.60
2018-11-20T08:44:18.503Z,6.62
2018-11-20T08:45:45.603Z,6.62
2018-11-20T08:47:08.101Z,6.66
2018-11-20T08:48:44.246Z,6.69
2018-11-20T08:50:14.057Z,6.71
2018-11-20T08:51:42.249Z,6.72
2018-11-20T08:53:05.533Z,6.73
2018-11-20T08:54:35.373Z,6.74
2018-11-20T08:56:03.384Z,6.76
2018-11-20T08:57:26.243Z,6.78
2018-11-20T08:58:48.833Z,6.80
2018-11-20T09:00:19.065Z,6.81
2018-11-20T09:01:52.871Z,6.79
2018-11-20T09:03:15.658Z,6.80
2018-11-20T09:04:38.264Z,6.80
2018-11-20T09:06:05.174Z,6.81
2018-11-20T09:07:44.547Z,6.80
2018-11-20T09:09:03.025Z,6.83
2018-11-20T09:10:27.212Z,6.83
2018-11-20T09:11:49.744Z,6.81
2018-11-20T09:13:12.894Z,6.81
2018-11-20T09:14:48.901Z,6.81
2018-11-20T09:16:15.817Z,6.83
2018-11-20T09:17:52.267Z,6.85
2018-11-20T09:19:19.035Z,6.88
2018-11-20T09:20:41.697Z,6.90
2018-11-20T09:22:08.410Z,6.89
2018-11-20T09:23:32.504Z,6.89
2018-11-20T09:24:59.388Z,6.89
2018-11-20T09:26:32.352Z,6.88
2018-11-20T09:27:48.116Z,6.87
2018-11-20T09:29:27.237Z,6.88
2018-11-20T09:31:09.548Z,6.88
2018-11-20T09:32:33.578Z,6.87
2018-11-20T09:33:47.333Z,6.87
2018-11-20T09:35:10.198Z,6.88
2018-11-20T09:36:32.906Z,6.89
2018-11-20T09:38:06.031Z,6.90
2018-11-20T09:39:29.546Z,6.91
2018-11-20T09:41:05.363Z,6.92
2018-11-20T09:42:28.151Z,6.94
2018-11-20T09:43:58.995Z,6.96
2018-11-20T09:45:51.056Z,6.96
2018-11-20T09:47:17.641Z,6.96
2018-11-20T09:48:46.088Z,6.96
2018-11-20T09:50:08.494Z,6.98
2018-11-20T09:51:23.893Z,6.99
2018-11-20T09:53:05.715Z,7.00
2018-11-20T09:54:26.870Z,7.01
2018-11-20T09:55:49.423Z,7.04
2018-11-20T09:57:19.318Z,7.06
2018-11-20T09:58:42.301Z,7.09
2018-11-20T10:00:08.818Z,7.10
2018-11-20T10:01:31.363Z,7.11
2018-11-20T10:02:53.281Z,7.13
2018-11-20T10:04:17.246Z,7.14
2018-11-20T10:05:31.507Z,7.16
2018-11-20T10:06:54.126Z,7.18
2018-11-20T10:08:16.933Z,7.20
2018-11-20T10:09:39.912Z,7.21
2018-11-20T10:11:02.431Z,7.21
2018-11-20T10:12:25.131Z,7.23
2018-11-20T10:13:47.236Z,7.25
2018-11-20T10:15:09.983Z,7.25
2018-11-20T10:16:51.994Z,7.27
2018-11-20T10:18:15.907Z,7.28
2018-11-20T10:19:43.209Z,7.29
2018-11-20T10:20:58.532Z,7.31
2018-11-20T10:22:21.179Z,7.31
2018-11-20T10:23:40.678Z,7.29
2018-11-20T10:25:14.018Z,7.30
2018-11-20T10:26:29.473Z,7.31
2018-11-20T10:27:51.864Z,7.33
2018-11-20T10:29:21.694Z,7.34
2018-11-20T10:30:51.709Z,7.35
2018-11-20T10:32:11.474Z,7.37
2018-11-20T10:33:47.196Z,7.39
2018-11-20T10:35:13.755Z,7.39
2018-11-20T10:36:36.226Z,7.40
2018-11-20T10:38:18.524Z,7.38
2018-11-20T10:39:51.718Z,7.38
2018-11-20T10:41:14.331Z,7.36
2018-11-20T10:42:37.560Z,7.36
2018-11-20T10:44:04.267Z,7.36
2018-11-20T10:45:46.099Z,7.36
2018-11-20T10:47:07.072Z,7.37
2018-11-20T10:48:31.127Z,7.36
2018-11-20T10:49:53.856Z,7.34
2018-11-20T10:51:35.957Z,7.37
2018-11-20T10:53:06.279Z,7.37
2018-11-20T10:54:36.448Z,7.40
2018-11-20T10:56:12.203Z,7.42
2018-11-20T10:57:31.422Z,7.45
2018-11-20T10:58:55.401Z,7.47
2018-11-20T11:00:18.091Z,7.47
2018-11-20T11:01:40.855Z,7.49
2018-11-20T11:03:03.526Z,7.51
2018-11-20T11:04:26.165Z,7.50
2018-11-20T11:05:50.005Z,7.50
2018-11-20T11:07:20.751Z,7.51
2018-11-20T11:08:46.877Z,7.55
2018-11-20T11:10:00.132Z,7.56
2018-11-20T11:11:22.495Z,7.54
2018-11-20T11:12:46.935Z,7.53
2018-11-20T11:14:17.017Z,7.52
2018-11-20T11:15:35.038Z,7.53
2018-11-20T11:16:51.995Z,7.52
2018-11-20T11:18:16.018Z,7.54
2018-11-20T11:19:39.385Z,7.55
2018-11-20T11:21:01.957Z,7.55
2018-11-20T11:22:25.938Z,7.54
2018-11-20T11:23:53.895Z,7.55
2018-11-20T11:25:16.691Z,7.56
2018-11-20T11:26:42.079Z,7.61
2018-11-20T11:28:09.426Z,7.62
2018-11-20T11:29:39.387Z,7.62
2018-11-20T11:31:01.917Z,7.65
2018-11-20T11:32:34.945Z,7.66
2018-11-20T11:34:00.876Z,7.66
2018-11-20T11:35:23.904Z,7.66
2018-11-20T11:36:42.440Z,7.66
2018-11-20T11:38:12.118Z,7.66
2018-11-20T11:39:28.838Z,7.69
2018-11-20T11:40:55.293Z,7.71
2018-11-20T11:42:19.638Z,7.74
2018-11-20T11:43:46.373Z,7.76
2018-11-20T11:45:13.534Z,7.78
2018-11-20T11:46:40.309Z,7.79
2018-11-20T11:48:16.213Z,7.80
2018-11-20T11:49:41.214Z,7.81
2018-11-20T11:51:03.759Z,7.82
2018-11-20T11:52:34.001Z,7.82
2018-11-20T11:53:48.806Z,7.83
2018-11-20T11:55:27.826Z,7.86
2018-11-20T11:56:55.797Z,7.86
2018-11-20T11:58:18.796Z,7.88
2018-11-20T11:59:41.144Z,7.88
2018-11-20T12:01:17.430Z,7.87
2018-11-20T12:04:14.073Z,7.85
2018-11-20T12:05:38.134Z,7.84
2018-11-20T12:07:00.947Z,7.85
2018-11-20T12:08:12.527Z,7.85
2018-11-20T12:09:35.266Z,7.85
2018-11-20T12:11:01.774Z,7.86
2018-11-20T12:12:24.556Z,7.86
2018-11-20T12:13:47.294Z,7.86
2018-11-20T12:15:09.637Z,7.88
2018-11-20T12:16:32.353Z,7.91
2018-11-20T12:18:11.587Z,7.92
2018-11-20T12:19:34.019Z,7.95
2018-11-20T12:20:58.234Z,7.95
2018-11-20T12:22:24.740Z,7.94
2018-11-20T12:24:03.943Z,7.93
2018-11-20T12:25:23.025Z,7.94
2018-11-20T12:27:02.686Z,7.95
2018-11-20T12:28:29.016Z,7.96
2018-11-20T12:29:51.939Z,7.96
2018-11-20T12:31:14.586Z,7.96
2018-11-20T12:32:38.595Z,7.98
2018-11-20T12:34:18.932Z,7.99
2018-11-20T12:35:41.516Z,8.00
2018-11-20T12:37:14.377Z,7.99
2018-11-20T12:38:46.788Z,8.00
2018-11-20T12:40:09.236Z,8.02
2018-11-20T12:41:29.076Z,7.98
2018-11-20T12:43:11.527Z,7.97
2018-11-20T12:44:54.399Z,7.93
2018-11-20T12:46:16.397Z,7.92
2018-11-20T12:47:42.920Z,7.89
2018-11-20T12:48:58.483Z,7.88
2018-11-20T12:50:24.121Z,7.88
2018-11-20T12:51:46.378Z,7.88
2018-11-20T12:53:09.218Z,7.89
2018-11-20T12:54:42.348Z,7.90
2018-11-20T12:56:15.327Z,7.92
2018-11-20T12:57:37.968Z,7.91
2018-11-20T12:59:00.839Z,7.92
2018-11-20T13:00:23.527Z,7.92
2018-11-20T13:01:47.843Z,7.91
2018-11-20T13:03:18.026Z,7.92
2018-11-20T13:04:40.634Z,7.91
2018-11-20T13:06:03.289Z,7.92
2018-11-20T13:07:22.852Z,7.92
2018-11-20T13:08:43.759Z,7.91
2018-11-20T13:10:06.637Z,7.90
2018-11-20T13:11:29.267Z,7.91
2018-11-20T13:13:11.766Z,7.89
2018-11-20T13:14:34.362Z,7.88
2018-11-20T13:16:10.443Z,7.88
2018-11-20T13:17:41.444Z,7.83
2018-11-20T13:19:15.886Z,7.81
2018-11-20T13:20:42.930Z,7.80
2018-11-20T13:22:10.404Z,7.80
2018-11-20T13:23:33.322Z,7.80
2018-11-20T13:24:52.856Z,7.78
2018-11-20T13:26:22.724Z,7.76
2018-11-20T13:27:45.588Z,7.76
2018-11-20T13:29:02.263Z,7.74
2018-11-20T13:30:26.598Z,7.74
2018-11-20T13:31:49.283Z,7.75
2018-11-20T13:33:20.370Z,7.73
2018-11-20T13:34:50.023Z,7.70
2018-11-20T13:36:06.110Z,7.69
2018-11-20T13:37:45.467Z,7.70
2018-11-20T13:39:13.881Z,7.72
2018-11-20T13:41:31.924Z,7.74
2018-11-20T13:43:00.028Z,7.76
2018-11-20T13:44:39.674Z,7.76
2018-11-20T13:45:56.331Z,7.74
2018-11-20T13:47:29.422Z,7.74
2018-11-20T13:48:52.184Z,7.76
2018-11-20T13:50:14.985Z,7.74
2018-11-20T13:51:37.812Z,7.73
2018-11-20T13:53:07.955Z,7.72
2018-11-20T13:54:31.988Z,7.70
2018-11-20T13:56:01.291Z,7.69
2018-11-20T13:57:25.162Z,7.68
2018-11-20T13:58:58.911Z,7.69
2018-11-20T14:00:21.277Z,7.72
2018-11-20T14:01:50.894Z,7.72
2018-11-20T14:03:18.545Z,7.69
2018-11-20T14:04:41.347Z,7.68
2018-11-20T14:06:05.360Z,7.66
2018-11-20T14:07:19.074Z,7.66
2018-11-20T14:08:34.373Z,7.66
2018-11-20T14:09:47.769Z,7.68
2018-11-20T14:11:00.044Z,7.68
2018-11-20T14:12:23.976Z,7.67
2018-11-20T14:13:54.131Z,7.68
2018-11-20T14:15:16.828Z,7.71
2018-11-20T14:16:49.952Z,7.71
2018-11-20T14:18:12.256Z,7.72
2018-11-20T14:19:25.213Z,7.72
2018-11-20T14:20:49.194Z,7.72
2018-11-20T14:22:13.178Z,7.71
2018-11-20T14:23:35.266Z,7.71
2018-11-20T14:25:18.543Z,7.71
2018-11-20T14:26:41.082Z,7.70
2018-11-20T14:28:03.870Z,7.71
2018-11-20T14:29:30.706Z,7.70
2018-11-20T14:30:47.033Z,7.69
2018-11-20T14:32:10.086Z,7.69
2018-11-20T14:33:36.990Z,7.69
2018-11-20T14:34:59.693Z,7.67
2018-11-20T14:36:26.843Z,7.68
2018-11-20T14:38:02.456Z,7.67
2018-11-20T14:39:21.014Z,7.66
2018-11-20T14:40:47.777Z,7.62
2018-11-20T14:42:06.413Z,7.61
2018-11-20T14:43:29.112Z,7.59
2018-11-20T14:44:50.915Z,7.60
2018-11-20T14:46:11.055Z,7.63
2018-11-20T14:47:33.739Z,7.62
2018-11-20T14:48:56.603Z,7.62
2018-11-20T14:50:14.341Z,7.60
2018-11-20T14:51:43.926Z,7.60
2018-11-20T14:53:06.889Z,7.60
2018-11-20T14:54:39.450Z,7.59
2018-11-20T14:56:07.122Z,7.59
2018-11-20T14:57:43.385Z,7.61
2018-11-20T14:59:06.130Z,7.60
2018-11-20T15:00:30.154Z,7.59
2018-11-20T15:01:48.318Z,7.60
2018-11-20T15:03:11.146Z,7.60
2018-11-20T15:04:53.475Z,7.59
2018-11-20T15:06:10.482Z,7.60
2018-11-20T15:07:34.497Z,7.58
2018-11-20T15:09:16.456Z,7.56
2018-11-20T15:10:58.752Z,7.56
2018-11-20T15:12:24.963Z,7.56
2018-11-20T15:13:47.757Z,7.54
2018-11-20T15:15:19.540Z,7.53
2018-11-20T15:16:43.596Z,7.54
2018-11-20T15:18:07.552Z,7.56
2018-11-20T15:19:22.250Z,7.57
2018-11-20T15:20:45.300Z,7.57
2018-11-20T15:22:18.424Z,7.59
2018-11-20T15:23:39.073Z,7.63
2018-11-20T15:24:54.790Z,7.65
2018-11-20T15:26:21.647Z,7.65
2018-11-20T15:27:44.340Z,7.65
2018-11-20T15:29:07.222Z,7.66
2018-11-20T15:30:35.560Z,7.68
2018-11-20T15:31:52.506Z,7.67
2018-11-20T15:33:29.226Z,7.67
2018-11-20T15:34:49.118Z,7.67
2018-11-20T15:36:13.063Z,7.70
2018-11-20T15:37:34.500Z,7.69
2018-11-20T15:38:50.410Z,7.69
2018-11-20T15:40:13.183Z,7.70
2018-11-20T15:41:35.871Z,7.71
2018-11-20T15:42:58.472Z,7.71
2018-11-20T15:44:37.645Z,7.71
2018-11-20T15:46:11.148Z,7.69
2018-11-20T15:47:37.960Z,7.68
2018-11-20T15:48:57.017Z,7.66
2018-11-20T15:50:38.984Z,7.67
2018-11-20T15:52:02.060Z,7.66
2018-11-20T15:53:21.602Z,7.66
2018-11-20T15:54:47.503Z,7.64
2018-11-20T15:56:09.991Z,7.63
2018-11-20T15:57:32.442Z,7.63
2018-11-20T15:58:55.377Z,7.65
2018-11-20T16:00:18.361Z,7.65
2018-11-20T16:01:57.480Z,7.64
2018-11-20T16:03:16.145Z,7.65
2018-11-20T16:04:49.015Z,7.65
2018-11-20T16:06:11.371Z,7.64
2018-11-20T16:07:34.349Z,7.66
2018-11-20T16:09:00.908Z,7.67
2018-11-20T16:10:26.387Z,7.68
2018-11-20T16:11:48.784Z,7.70
2018-11-20T16:13:07.586Z,7.71
2018-11-20T16:14:29.589Z,7.74
2018-11-20T16:16:02.907Z,7.72
2018-11-20T16:17:20.445Z,7.72
2018-11-20T16:18:43.742Z,7.73
2018-11-20T16:20:06.081Z,7.74
2018-11-20T16:21:45.097Z,7.74
2018-11-20T16:23:07.770Z,7.76
2018-11-20T16:24:43.836Z,7.75
2018-11-20T16:26:06.857Z,7.76
2018-11-20T16:27:31.802Z,7.77
2018-11-20T16:29:14.030Z,7.77
2018-11-20T16:30:43.872Z,7.77
2018-11-20T16:32:19.734Z,7.78
2018-11-20T16:33:42.425Z,7.76
2018-11-20T16:35:04.898Z,7.75
2018-11-20T16:36:31.506Z,7.75
2018-11-20T16:37:50.203Z,7.75
2018-11-20T16:39:12.861Z,7.74
2018-11-20T16:40:35.693Z,7.74
2018-11-20T16:41:58.515Z,7.74
2018-11-20T16:43:22.563Z,7.76
2018-11-20T16:44:45.165Z,7.76
2018-11-20T16:46:15.878Z,7.77
2018-11-20T16:47:55.274Z,7.77
2018-11-20T16:49:19.304Z,7.78
2018-11-20T16:50:42.228Z,7.77
2018-11-20T16:52:00.302Z,7.78
2018-11-20T16:53:33.851Z,7.78
2018-11-20T16:55:12.797Z,7.77
2018-11-20T16:56:36.783Z,7.76
2018-11-20T16:57:50.481Z,7.76
2018-11-20T16:59:23.183Z,7.76
2018-11-20T17:00:46.059Z,7.76
2018-11-20T17:02:06.262Z,7.75
2018-11-20T17:03:25.154Z,7.75
2018-11-20T17:04:55.442Z,7.74
2018-11-20T17:06:18.167Z,7.74
2018-11-20T17:07:42.522Z,7.75
2018-11-20T17:09:05.770Z,7.76
2018-11-20T17:10:28.690Z,7.77
2018-11-20T17:11:44.327Z,7.78
2018-11-20T17:13:06.823Z,7.79
2018-11-20T17:14:33.678Z,7.79
2018-11-20T17:16:01.084Z,7.78
2018-11-20T17:17:34.514Z,7.76
2018-11-20T17:18:54.856Z,7.77
2018-11-20T17:20:33.856Z,7.79
2018-11-20T17:22:00.812Z,7.80
2018-11-20T17:23:34.013Z,7.81
2018-11-20T17:24:56.714Z,7.82
2018-11-20T17:26:14.877Z,7.83
2018-11-20T17:27:35.576Z,7.82
2018-11-20T17:28:58.367Z,7.79
2018-11-20T17:30:28.505Z,7.78
2018-11-20T17:31:58.487Z,7.77
2018-11-20T17:33:37.858Z,7.76
2018-11-20T17:35:01.875Z,7.79
2018-11-20T17:36:24.509Z,7.80
2018-11-20T17:37:56.114Z,7.81
2018-11-20T17:39:15.585Z,7.82
2018-11-20T17:40:38.589Z,7.83
2018-11-20T17:41:56.705Z,7.84
2018-11-20T17:43:13.416Z,7.84
2018-11-20T17:44:55.821Z,7.83
2018-11-20T17:46:25.868Z,7.82
2018-11-20T17:47:48.372Z,7.81
2018-11-20T17:49:24.231Z,7.80
2018-11-20T17:50:46.965Z,7.80
2018-11-20T17:52:06.908Z,7.81
2018-11-20T17:53:29.447Z,7.81
2018-11-20T17:54:47.734Z,7.82
2018-11-20T17:56:10.621Z,7.82
2018-11-20T17:57:33.559Z,7.82
2018-11-20T17:59:03.396Z,7.83
2018-11-20T18:00:27.935Z,7.82
2018-11-20T18:02:01.028Z,7.83
2018-11-20T18:03:17.678Z,7.83
2018-11-20T18:04:44.890Z,7.83
2018-11-20T18:06:00.473Z,7.85
2018-11-20T18:07:22.593Z,7.86
2018-11-20T18:08:40.028Z,7.88
2018-11-20T18:10:12.927Z,7.88
2018-11-20T18:11:45.855Z,7.90
2018-11-20T18:13:08.539Z,7.91
2018-11-20T18:14:50.796Z,7.91
2018-11-20T18:16:11.455Z,7.90
2018-11-20T18:17:38.424Z,7.86
2018-11-20T18:19:01.099Z,7.84
2018-11-20T18:20:26.731Z,7.83
2018-11-20T18:21:49.462Z,7.83
2018-11-20T18:23:22.625Z,7.81
2018-11-20T18:24:45.265Z,7.81
2018-11-20T18:26:12.249Z,7.80
2018-11-20T18:27:36.237Z,7.79
2018-11-20T18:29:00.923Z,7.79
2018-11-20T18:30:27.000Z,7.77
2018-11-20T18:31:49.636Z,7.76
2018-11-20T18:33:19.575Z,7.75
2018-11-20T18:34:44.043Z,7.75
2018-11-20T18:36:01.621Z,7.76
2018-11-20T18:37:31.643Z,7.77
2018-11-20T18:39:02.815Z,7.78
2018-11-20T18:40:26.022Z,7.78
2018-11-20T18:41:44.203Z,7.79
2018-11-20T18:43:11.613Z,7.79
2018-11-20T18:44:33.592Z,7.83
2018-11-20T18:45:57.880Z,7.84
2018-11-20T18:47:24.117Z,7.82
2018-11-20T18:48:40.312Z,7.81
2018-11-20T18:50:03.112Z,7.81
2018-11-20T18:51:32.994Z,7.81
2018-11-20T18:53:06.042Z,7.82
2018-11-20T18:54:25.558Z,7.82
2018-11-20T18:55:48.813Z,7.83
2018-11-20T18:57:24.779Z,7.83
2018-11-20T18:58:44.354Z,7.82
2018-11-20T19:00:08.320Z,7.81
2018-11-20T19:01:24.346Z,7.82
2018-11-20T19:02:54.437Z,7.80
2018-11-20T19:04:16.913Z,7.80
2018-11-20T19:05:39.814Z,7.79
2018-11-20T19:07:06.535Z,7.78
2018-11-20T19:08:33.269Z,7.76
2018-11-20T19:10:03.255Z,7.76